Hutchinson County Airport - Borger, Texas, United States - FAA: BGD - ICAO: KBGD - IATA: BGD

 
  Longest Runway: 6,300 feet   Approach Types:    Customs Landing Rights Airport: No   Port of Entry: No

Local Forecast

Today (4/18): A 20 percent chance of showers and thunderstorms after 1pm. Mostly sunny, with a high near 74. South southwest wind 5 to 15 mph.

Tonight (4/18): Partly cloudy, with a low around 45. Northwest wind 5 to 15 mph, with gusts as high as 20 mph.

Sunday (4/19): Mostly sunny, with a high near 65. Windy, with a north northwest wind 10 to 20 mph increasing to 20 to 30 mph in the afternoon. Winds could gust as high as 40 mph.

Sunday Night (4/19): Partly cloudy, with a low around 40. North wind 10 to 15 mph becoming north northwest 5 to 10 mph after midnight. Winds could gust as high as 25 mph.

Monday (4/20): Partly sunny, with a high near 68. South wind 5 to 10 mph.

Monday Night (4/20): A 40 percent chance of showers and thunderstorms. Mostly cloudy, with a low around 44. Southeast wind around 10 mph.

Tuesday (4/21): A 20 percent chance of showers and thunderstorms. Partly sunny, with a high near 68. South southeast wind 5 to 10 mph.



Current Weather (METAR)

2015/04/18 14:51 KBGD 181451Z AUTO 26005KT 10SM CLR 13/01 A2991 RMK AO2 SLP108 T01330011 58002

BORGER HUTCHINSON CO AIRPORT , TX, United States (KBGD) 35-42N 101-24W 927M Apr 18, 2015 - 10:51 AM EDT / 2015.04.18 1451 UTC Wind: from the W (260 degrees) at 6 MPH (5 KT):0 Visibility: 10 mile(s):0 Sky conditions: clear Temperature: 55.9 F (13.3 C) Dew Point: 34.0 F (1.1 C) Relative Humidity: 43% Pressure (altimeter): 29.91 in. Hg (1012 hPa) Pressure tendency: 0.01 inches (0.2 hPa) lower than three hours ago ob: KBGD 181451Z AUTO 26005KT 10SM CLR 13/01 A2991 RMK AO2 SLP108 T01330011 58002 cycle: 15

Terminal Forecast (TAF)